Time;durP1;ratioP1;P1;durP2;ratioP2;P2;SDS_P1;SDS_P2;PMS_P1;PMS_P2;Temp;Humidity;BMP_temperature;BMP_pressure;BME280_temperature;BME280_humidity;BME280_pressure;Samples;Min_cycle;Max_cycle;Signal;HPM_P1;HPM_P2
2023/03/14 00:00:00;;;;;;;8.85;4.38;;;;;;;;;;5026671;28;20408;-80
2023/03/14 00:02:26;;;;;;;6.45;3.40;;;;;;;;;;5024360;28;20052;-80
2023/03/14 00:04:55;;;;;;;6.75;3.40;;;;;;;;;;5026039;28;20257;-80
2023/03/14 00:07:24;;;;;;;6.70;4.07;;;;;;;;;;5027025;28;20028;-80
2023/03/14 00:09:50;;;;;;;8.63;3.70;;;;;;;;;;5009983;28;20065;-81
2023/03/14 00:12:16;;;;;;;7.78;3.80;;;;;;;;;;5008699;28;20034;-80
2023/03/14 00:14:43;;;;;;;8.88;4.15;;;;;;;;;;5008346;28;20022;-81
2023/03/14 00:17:09;;;;;;;6.95;3.60;;;;;;;;;;5005714;28;20434;-80
2023/03/14 00:19:35;;;;;;;9.00;4.65;;;;;;;;;;5013022;28;20029;-80
2023/03/14 00:22:01;;;;;;;8.10;3.60;;;;;;;;;;5006005;28;20030;-81
2023/03/14 00:24:27;;;;;;;6.22;3.38;;;;;;;;;;5022145;28;20034;-80
2023/03/14 00:26:53;;;;;;;7.32;3.65;;;;;;;;;;5007747;28;20033;-80
2023/03/14 00:29:19;;;;;;;7.28;3.50;;;;;;;;;;5007847;28;20033;-80
2023/03/14 00:31:45;;;;;;;7.05;3.60;;;;;;;;;;5017991;28;20086;-80
2023/03/14 00:34:11;;;;;;;6.65;3.78;;;;;;;;;;5015701;28;20022;-80
2023/03/14 00:36:37;;;;;;;6.22;3.10;;;;;;;;;;5022960;28;20026;-81
2023/03/14 00:39:03;;;;;;;9.88;3.80;;;;;;;;;;5008043;28;20018;-80
2023/03/14 00:41:29;;;;;;;7.15;3.40;;;;;;;;;;5008928;28;20036;-80
2023/03/14 00:43:55;;;;;;;6.50;3.35;;;;;;;;;;5027471;28;20061;-80
2023/03/14 00:46:21;;;;;;;7.88;3.78;;;;;;;;;;5027511;28;20022;-79
2023/03/14 00:48:48;;;;;;;6.97;3.30;;;;;;;;;;5007251;28;20161;-80
2023/03/14 00:51:14;;;;;;;7.25;3.63;;;;;;;;;;5025472;28;20125;-80
2023/03/14 00:53:41;;;;;;;6.88;3.30;;;;;;;;;;5024707;28;20079;-80
2023/03/14 00:56:09;;;;;;;8.43;3.60;;;;;;;;;;5006184;28;20049;-80
2023/03/14 00:58:35;;;;;;;7.03;3.22;;;;;;;;;;5008490;28;20160;-80
2023/03/14 01:01:13;;;;;;;7.13;3.20;;;;;;;;;;5005867;28;20031;-81
2023/03/14 01:03:39;;;;;;;8.45;3.85;;;;;;;;;;5003582;28;20046;-80
2023/03/14 01:06:13;;;;;;;6.78;3.13;;;;;;;;;;5002944;28;20035;-81
2023/03/14 01:08:39;;;;;;;7.38;4.55;;;;;;;;;;5001593;28;20089;-80
2023/03/14 01:11:08;;;;;;;6.35;3.30;;;;;;;;;;5002209;28;20105;-79
2023/03/14 01:13:34;;;;;;;5.90;3.10;;;;;;;;;;5001638;28;20128;-79
2023/03/14 01:16:07;;;;;;;6.25;3.60;;;;;;;;;;5001422;28;20106;-80
2023/03/14 01:18:37;;;;;;;8.10;4.40;;;;;;;;;;5002645;28;20050;-80
2023/03/14 01:21:13;;;;;;;6.00;3.70;;;;;;;;;;5017621;28;20045;-79
2023/03/14 01:23:39;;;;;;;7.38;3.33;;;;;;;;;;5004576;28;20031;-80
2023/03/14 01:26:08;;;;;;;6.88;3.78;;;;;;;;;;5000602;28;20023;-80
2023/03/14 01:28:34;;;;;;;5.82;3.30;;;;;;;;;;5002137;28;20092;-80
2023/03/14 01:31:04;;;;;;;6.45;3.13;;;;;;;;;;5011635;28;20034;-78
2023/03/14 01:33:30;;;;;;;7.97;4.28;;;;;;;;;;5018610;28;20018;-79
2023/03/14 01:35:56;;;;;;;6.07;3.00;;;;;;;;;;5001815;28;20053;-79
2023/03/14 01:38:22;;;;;;;6.30;2.92;;;;;;;;;;5000732;28;20380;-80
2023/03/14 01:40:48;;;;;;;7.90;3.28;;;;;;;;;;5002934;28;20030;-80
2023/03/14 01:43:19;;;;;;;7.70;3.60;;;;;;;;;;5018758;28;20033;-79
2023/03/14 01:45:54;;;;;;;6.72;3.15;;;;;;;;;;5009174;28;20165;-80
2023/03/14 01:48:20;;;;;;;6.97;3.40;;;;;;;;;;5000169;28;20113;-79
2023/03/14 01:50:46;;;;;;;6.68;3.20;;;;;;;;;;5011180;28;20661;-80
2023/03/14 01:53:12;;;;;;;7.40;3.53;;;;;;;;;;5020080;28;20025;-79
2023/03/14 01:56:08;;;;;;;8.40;3.45;;;;;;;;;;5015462;28;20342;-79
2023/03/14 01:58:34;;;;;;;5.80;3.17;;;;;;;;;;4984783;28;20166;-80
2023/03/14 02:01:01;;;;;;;7.15;3.63;;;;;;;;;;4992397;28;20045;-80
2023/03/14 02:03:28;;;;;;;7.50;3.92;;;;;;;;;;4984236;28;20070;-80
2023/03/14 02:05:56;;;;;;;7.88;3.67;;;;;;;;;;4983641;28;20034;-79
2023/03/14 02:08:22;;;;;;;7.05;3.33;;;;;;;;;;4981696;28;20049;-79
2023/03/14 02:10:49;;;;;;;6.15;3.17;;;;;;;;;;4981328;28;20494;-80
2023/03/14 02:13:16;;;;;;;6.15;3.15;;;;;;;;;;4981830;28;20030;-79
2023/03/14 02:15:42;;;;;;;6.78;3.22;;;;;;;;;;4965706;28;20107;-79
2023/03/14 02:18:09;;;;;;;7.82;2.72;;;;;;;;;;4997680;28;20030;-79
2023/03/14 02:20:35;;;;;;;6.63;2.80;;;;;;;;;;4980193;28;20034;-79
2023/03/14 02:23:01;;;;;;;6.32;3.28;;;;;;;;;;4981327;28;20576;-80
2023/03/14 02:25:44;;;;;;;7.03;3.15;;;;;;;;;;4981097;28;20777;-79
2023/03/14 02:28:10;;;;;;;8.98;3.42;;;;;;;;;;4969935;28;20427;-79
2023/03/14 02:30:36;;;;;;;9.63;2.95;;;;;;;;;;4978823;28;20026;-79
2023/03/14 02:33:02;;;;;;;5.53;2.58;;;;;;;;;;4999052;28;20445;-80
2023/03/14 02:35:30;;;;;;;8.73;3.50;;;;;;;;;;4999875;28;20034;-79
2023/03/14 02:37:59;;;;;;;6.55;2.97;;;;;;;;;;4999841;28;20592;-79
2023/03/14 02:40:25;;;;;;;7.47;3.40;;;;;;;;;;5002092;28;20098;-80
2023/03/14 02:42:51;;;;;;;6.00;3.40;;;;;;;;;;5002020;28;20513;-80
2023/03/14 02:45:17;;;;;;;7.50;3.67;;;;;;;;;;5021229;28;20014;-80
2023/03/14 02:47:46;;;;;;;6.38;2.90;;;;;;;;;;5020920;28;20037;-79
2023/03/14 02:50:15;;;;;;;6.63;3.50;;;;;;;;;;5016490;28;20033;-80
2023/03/14 02:52:41;;;;;;;7.63;3.40;;;;;;;;;;5009748;28;20022;-80
2023/03/14 02:55:07;;;;;;;6.88;2.58;;;;;;;;;;5000243;28;20030;-79
2023/03/14 02:57:33;;;;;;;7.68;3.30;;;;;;;;;;5001817;28;20026;-79
2023/03/14 02:59:59;;;;;;;9.93;3.58;;;;;;;;;;5010558;28;20042;-80
2023/03/14 03:02:26;;;;;;;6.10;3.22;;;;;;;;;;5020415;28;20040;-80
2023/03/14 03:04:52;;;;;;;5.50;3.00;;;;;;;;;;5008327;28;20030;-80
2023/03/14 03:07:18;;;;;;;5.97;3.10;;;;;;;;;;5001562;28;20105;-80
2023/03/14 03:09:45;;;;;;;7.07;3.83;;;;;;;;;;5001729;28;20018;-79
2023/03/14 03:12:11;;;;;;;6.82;3.40;;;;;;;;;;5000608;28;20497;-79
2023/03/14 03:14:39;;;;;;;5.65;3.33;;;;;;;;;;4998926;28;20030;-79
2023/03/14 03:17:05;;;;;;;6.63;3.58;;;;;;;;;;5000537;28;20397;-79
2023/03/14 03:19:32;;;;;;;6.80;3.53;;;;;;;;;;5014806;28;20029;-79
2023/03/14 03:21:58;;;;;;;7.47;3.40;;;;;;;;;;5004143;28;20474;-80
2023/03/14 03:24:24;;;;;;;7.43;3.40;;;;;;;;;;5000162;28;20062;-79
2023/03/14 03:26:51;;;;;;;7.00;2.83;;;;;;;;;;5000101;28;20267;-79
2023/03/14 03:29:16;;;;;;;6.50;3.38;;;;;;;;;;5001358;28;20030;-79
2023/03/14 03:31:45;;;;;;;5.32;2.80;;;;;;;;;;5001386;28;20308;-79
2023/03/14 03:34:11;;;;;;;7.35;3.40;;;;;;;;;;5011910;28;20029;-79
2023/03/14 03:36:37;;;;;;;6.15;3.20;;;;;;;;;;5009990;28;20058;-79
2023/03/14 03:39:03;;;;;;;8.23;3.75;;;;;;;;;;5014269;28;20066;-80
2023/03/14 03:41:29;;;;;;;6.55;3.30;;;;;;;;;;4999449;28;20022;-78
2023/03/14 03:43:55;;;;;;;8.90;3.75;;;;;;;;;;5012244;28;20034;-80
2023/03/14 03:46:21;;;;;;;6.45;3.97;;;;;;;;;;5017500;28;20025;-80
2023/03/14 03:48:47;;;;;;;7.32;4.38;;;;;;;;;;5001078;28;20042;-79
2023/03/14 03:51:14;;;;;;;9.52;4.57;;;;;;;;;;5000928;28;20024;-80
2023/03/14 03:53:40;;;;;;;7.10;4.18;;;;;;;;;;5002604;28;20026;-79
2023/03/14 03:56:07;;;;;;;9.65;5.15;;;;;;;;;;5002646;28;20026;-80
2023/03/14 03:58:33;;;;;;;9.52;4.85;;;;;;;;;;5016521;28;20042;-80
2023/03/14 04:00:59;;;;;;;8.00;4.70;;;;;;;;;;5011019;28;20030;-81
2023/03/14 04:03:25;;;;;;;8.80;5.13;;;;;;;;;;5011854;28;21335;-80
2023/03/14 04:05:58;;;;;;;8.88;4.80;;;;;;;;;;5002552;28;20029;-81
2023/03/14 04:08:24;;;;;;;9.20;5.40;;;;;;;;;;5005412;28;20085;-80
2023/03/14 04:10:54;;;;;;;7.78;5.43;;;;;;;;;;5006238;28;20054;-80
2023/03/14 04:13:20;;;;;;;10.93;5.88;;;;;;;;;;5021883;28;20025;-79
2023/03/14 04:15:46;;;;;;;9.25;6.57;;;;;;;;;;5018364;28;20080;-79
2023/03/14 04:18:12;;;;;;;10.55;5.53;;;;;;;;;;5021587;28;20022;-79
2023/03/14 04:20:38;;;;;;;8.48;5.15;;;;;;;;;;5010371;28;20038;-79
2023/03/14 04:23:04;;;;;;;8.40;5.60;;;;;;;;;;5006308;28;20109;-80
2023/03/14 04:25:30;;;;;;;10.32;5.85;;;;;;;;;;5003694;28;20022;-80
2023/03/14 04:27:56;;;;;;;8.82;5.55;;;;;;;;;;5001081;28;20101;-79
2023/03/14 04:30:22;;;;;;;9.63;5.80;;;;;;;;;;5007830;28;20494;-80
2023/03/14 04:32:48;;;;;;;9.63;5.57;;;;;;;;;;5008560;28;20046;-79
2023/03/14 04:35:14;;;;;;;9.52;5.65;;;;;;;;;;5013225;28;20022;-80
2023/03/14 04:37:41;;;;;;;8.82;5.43;;;;;;;;;;5022174;28;20026;-80
2023/03/14 04:40:08;;;;;;;8.85;5.85;;;;;;;;;;5013321;28;20022;-81
2023/03/14 04:42:34;;;;;;;9.43;5.70;;;;;;;;;;5022303;28;20181;-80
2023/03/14 04:45:03;;;;;;;11.85;5.85;;;;;;;;;;5008938;28;20042;-79
2023/03/14 04:47:29;;;;;;;10.40;5.80;;;;;;;;;;5008531;28;20030;-80
2023/03/14 04:49:55;;;;;;;9.05;5.75;;;;;;;;;;5008684;28;20036;-79
2023/03/14 04:52:22;;;;;;;9.30;5.75;;;;;;;;;;5025015;28;20045;-79
2023/03/14 04:54:48;;;;;;;9.43;5.65;;;;;;;;;;5016041;28;20048;-80
2023/03/14 04:57:14;;;;;;;8.82;5.70;;;;;;;;;;5014614;28;20113;-79
2023/03/14 04:59:40;;;;;;;8.93;5.60;;;;;;;;;;5008504;28;20176;-80
2023/03/14 05:02:06;;;;;;;11.05;6.38;;;;;;;;;;5003610;28;20502;-80
2023/03/14 05:04:33;;;;;;;11.27;6.47;;;;;;;;;;5007124;28;20033;-80
2023/03/14 05:06:59;;;;;;;9.68;6.05;;;;;;;;;;5004287;28;20026;-80
2023/03/14 05:09:25;;;;;;;9.00;5.78;;;;;;;;;;5008145;28;20096;-80
2023/03/14 05:11:52;;;;;;;11.50;6.35;;;;;;;;;;5016443;28;20018;-79
2023/03/14 05:14:18;;;;;;;8.80;6.05;;;;;;;;;;5013301;28;20497;-80
2023/03/14 05:16:44;;;;;;;10.18;5.82;;;;;;;;;;5017984;28;20022;-80
2023/03/14 05:19:10;;;;;;;12.40;6.90;;;;;;;;;;5009678;28;20030;-79
2023/03/14 05:21:37;;;;;;;11.02;6.60;;;;;;;;;;5021649;28;20032;-80
2023/03/14 05:24:03;;;;;;;10.77;5.65;;;;;;;;;;5013771;28;20026;-79
2023/03/14 05:26:29;;;;;;;12.15;6.93;;;;;;;;;;5020815;28;20094;-81
2023/03/14 05:28:55;;;;;;;10.43;6.25;;;;;;;;;;5018462;28;20037;-79
2023/03/14 05:31:21;;;;;;;12.30;7.18;;;;;;;;;;5010154;28;20027;-79
2023/03/14 05:33:47;;;;;;;13.13;8.18;;;;;;;;;;5021248;28;20052;-79
2023/03/14 05:36:13;;;;;;;12.20;7.55;;;;;;;;;;5016004;28;20061;-79
2023/03/14 05:38:39;;;;;;;11.43;6.75;;;;;;;;;;5018548;28;20030;-80
2023/03/14 05:41:05;;;;;;;14.93;7.70;;;;;;;;;;5019156;28;20061;-81
2023/03/14 05:43:31;;;;;;;11.95;7.30;;;;;;;;;;5016440;28;20038;-80
2023/03/14 05:45:57;;;;;;;13.63;7.15;;;;;;;;;;5008435;28;20034;-80
2023/03/14 05:48:23;;;;;;;11.27;7.05;;;;;;;;;;5007217;28;20053;-80
2023/03/14 05:50:54;;;;;;;11.45;6.75;;;;;;;;;;5003291;28;20026;-80
2023/03/14 05:53:20;;;;;;;11.27;6.80;;;;;;;;;;5006776;28;20374;-80
2023/03/14 05:55:46;;;;;;;13.82;7.43;;;;;;;;;;5008619;28;20030;-79
2023/03/14 05:58:12;;;;;;;10.60;6.28;;;;;;;;;;5008192;28;20145;-80
2023/03/14 06:00:38;;;;;;;11.07;6.20;;;;;;;;;;5012846;28;20057;-79
2023/03/14 06:03:05;;;;;;;11.63;7.53;;;;;;;;;;5017545;28;20054;-80
2023/03/14 06:05:31;;;;;;;16.33;8.13;;;;;;;;;;5009955;28;20536;-80
2023/03/14 06:07:57;;;;;;;12.98;8.65;;;;;;;;;;5010260;28;20033;-80
2023/03/14 06:10:23;;;;;;;13.30;7.22;;;;;;;;;;5010170;28;20026;-80
2023/03/14 06:12:49;;;;;;;16.02;8.60;;;;;;;;;;5007182;28;20029;-80
2023/03/14 06:15:16;;;;;;;11.80;8.13;;;;;;;;;;5008965;28;20022;-80
2023/03/14 06:17:42;;;;;;;14.65;8.05;;;;;;;;;;5010190;28;20026;-80
2023/03/14 06:20:08;;;;;;;13.05;8.10;;;;;;;;;;5004970;28;20402;-79
2023/03/14 06:22:34;;;;;;;16.20;9.35;;;;;;;;;;5004899;28;20443;-79
2023/03/14 06:25:00;;;;;;;13.48;8.52;;;;;;;;;;5011429;28;20030;-80
2023/03/14 06:27:26;;;;;;;16.08;9.77;;;;;;;;;;5008701;28;20025;-80
2023/03/14 06:29:53;;;;;;;11.50;7.53;;;;;;;;;;5019186;28;20026;-80
2023/03/14 06:32:20;;;;;;;14.80;8.63;;;;;;;;;;5009378;28;20022;-80
2023/03/14 06:34:46;;;;;;;11.35;7.22;;;;;;;;;;5007925;28;20088;-81
2023/03/14 06:37:12;;;;;;;12.18;7.05;;;;;;;;;;5001708;28;20041;-80
2023/03/14 06:39:38;;;;;;;12.52;8.30;;;;;;;;;;5011054;28;20073;-80
2023/03/14 06:42:05;;;;;;;16.60;8.15;;;;;;;;;;4999620;28;20022;-80
2023/03/14 06:44:31;;;;;;;12.75;7.55;;;;;;;;;;5005305;28;20025;-81
2023/03/14 06:46:57;;;;;;;14.18;8.50;;;;;;;;;;5013341;28;20026;-80
2023/03/14 06:49:23;;;;;;;14.88;8.40;;;;;;;;;;5008061;28;20098;-80
2023/03/14 06:51:49;;;;;;;11.57;8.27;;;;;;;;;;5015921;28;20030;-81
2023/03/14 06:54:15;;;;;;;13.20;9.35;;;;;;;;;;5013170;28;20500;-82
2023/03/14 06:56:41;;;;;;;15.00;7.70;;;;;;;;;;5024547;28;20144;-80
2023/03/14 06:59:07;;;;;;;14.10;8.00;;;;;;;;;;5021109;28;20073;-81
2023/03/14 07:01:34;;;;;;;16.15;8.48;;;;;;;;;;5010507;28;20038;-81
2023/03/14 07:04:01;;;;;;;14.63;7.80;;;;;;;;;;5018206;28;20046;-80
2023/03/14 07:06:29;;;;;;;22.05;12.82;;;;;;;;;;5003457;28;20030;-81
2023/03/14 07:08:55;;;;;;;15.60;8.48;;;;;;;;;;5018234;28;20114;-82
2023/03/14 07:11:21;;;;;;;13.05;8.77;;;;;;;;;;5005648;28;20036;-82
2023/03/14 07:13:47;;;;;;;16.17;8.20;;;;;;;;;;5006194;28;20548;-82
2023/03/14 07:16:13;;;;;;;11.32;6.97;;;;;;;;;;5016934;28;20093;-82
2023/03/14 07:18:39;;;;;;;13.20;6.68;;;;;;;;;;5003673;28;20026;-82
2023/03/14 07:21:06;;;;;;;13.38;7.55;;;;;;;;;;5003268;28;20026;-79
2023/03/14 07:23:32;;;;;;;13.35;6.90;;;;;;;;;;5010810;28;20033;-79
2023/03/14 07:25:58;;;;;;;12.50;6.55;;;;;;;;;;5007043;28;20034;-79
2023/03/14 07:28:25;;;;;;;17.75;12.10;;;;;;;;;;5004871;28;20670;-80
2023/03/14 07:30:51;;;;;;;13.57;7.80;;;;;;;;;;5003371;28;20022;-81
2023/03/14 07:33:17;;;;;;;16.13;9.57;;;;;;;;;;5024499;28;20026;-80
2023/03/14 07:35:43;;;;;;;12.50;7.45;;;;;;;;;;5019186;28;20030;-81
2023/03/14 07:38:09;;;;;;;16.40;10.30;;;;;;;;;;5002324;28;20081;-80
2023/03/14 07:40:35;;;;;;;11.32;7.85;;;;;;;;;;5004012;28;20064;-80
2023/03/14 07:43:01;;;;;;;11.25;7.32;;;;;;;;;;5003291;28;20027;-80
2023/03/14 07:45:27;;;;;;;9.95;7.00;;;;;;;;;;5017977;28;20032;-81
2023/03/14 07:47:57;;;;;;;10.70;6.57;;;;;;;;;;5002571;28;20117;-81
2023/03/14 07:50:23;;;;;;;12.10;7.15;;;;;;;;;;5000410;28;20026;-80
2023/03/14 07:52:49;;;;;;;14.13;7.05;;;;;;;;;;5017309;28;20326;-80
2023/03/14 07:55:15;;;;;;;12.38;7.30;;;;;;;;;;5009643;28;20069;-78
2023/03/14 07:57:41;;;;;;;11.90;6.78;;;;;;;;;;5008811;28;20037;-81
2023/03/14 08:00:08;;;;;;;13.18;7.15;;;;;;;;;;5014583;28;20041;-80
2023/03/14 08:02:35;;;;;;;11.90;6.93;;;;;;;;;;5015526;28;20033;-80
2023/03/14 08:05:01;;;;;;;9.85;6.57;;;;;;;;;;5010368;28;20025;-80
2023/03/14 08:07:28;;;;;;;9.88;5.40;;;;;;;;;;5019185;28;20044;-81
2023/03/14 08:09:54;;;;;;;10.40;6.07;;;;;;;;;;5019107;28;20505;-81
2023/03/14 08:12:20;;;;;;;11.50;5.68;;;;;;;;;;5002466;28;20029;-80
2023/03/14 08:14:46;;;;;;;12.65;5.72;;;;;;;;;;5025025;28;20025;-80
2023/03/14 08:17:12;;;;;;;15.13;7.47;;;;;;;;;;5010855;28;20042;-81
2023/03/14 08:19:38;;;;;;;11.57;6.55;;;;;;;;;;5008967;28;20706;-80
2023/03/14 08:22:04;;;;;;;17.83;7.90;;;;;;;;;;5021015;28;20040;-80
2023/03/14 08:24:30;;;;;;;10.88;6.63;;;;;;;;;;5025989;28;20030;-80
2023/03/14 08:26:56;;;;;;;11.95;6.35;;;;;;;;;;5026737;28;20032;-79
2023/03/14 08:29:22;;;;;;;9.07;5.80;;;;;;;;;;5025866;28;20096;-79
2023/03/14 08:31:49;;;;;;;10.05;6.05;;;;;;;;;;5020780;28;20437;-81
2023/03/14 08:34:15;;;;;;;11.05;6.85;;;;;;;;;;5022311;28;20023;-80
2023/03/14 08:36:41;;;;;;;9.88;6.15;;;;;;;;;;5006474;28;20027;-80
2023/03/14 08:39:07;;;;;;;9.98;6.18;;;;;;;;;;5004586;28;20133;-79
2023/03/14 08:41:39;;;;;;;9.43;5.95;;;;;;;;;;5005421;28;20041;-80
2023/03/14 08:44:05;;;;;;;8.43;5.28;;;;;;;;;;5007572;28;20030;-80
2023/03/14 08:46:31;;;;;;;9.10;5.57;;;;;;;;;;5023843;28;20045;-80
2023/03/14 08:48:57;;;;;;;8.95;4.70;;;;;;;;;;5023455;28;20380;-80
2023/03/14 08:51:23;;;;;;;7.45;4.60;;;;;;;;;;5024535;28;20022;-81
2023/03/14 08:53:50;;;;;;;8.77;4.63;;;;;;;;;;5024898;28;20034;-79
2023/03/14 08:56:16;;;;;;;8.48;4.30;;;;;;;;;;5004671;28;20080;-79
2023/03/14 08:58:42;;;;;;;8.48;4.15;;;;;;;;;;5005250;28;20050;-79
2023/03/14 09:01:09;;;;;;;6.82;3.58;;;;;;;;;;5017805;28;20109;-79
2023/03/14 09:03:35;;;;;;;10.85;4.22;;;;;;;;;;5006058;28;20026;-80
2023/03/14 09:06:03;;;;;;;9.13;4.30;;;;;;;;;;5019508;28;20034;-80
2023/03/14 09:08:29;;;;;;;11.30;4.07;;;;;;;;;;5005184;28;20030;-80
2023/03/14 09:10:55;;;;;;;11.23;5.30;;;;;;;;;;5004222;28;20018;-80
2023/03/14 09:13:21;;;;;;;7.95;4.72;;;;;;;;;;5021348;28;20052;-80
2023/03/14 09:15:51;;;;;;;10.13;5.95;;;;;;;;;;5007492;28;20038;-79
2023/03/14 09:18:17;;;;;;;10.50;5.05;;;;;;;;;;5005278;28;20038;-79
2023/03/14 09:20:43;;;;;;;8.75;6.07;;;;;;;;;;5006959;28;20026;-80
2023/03/14 09:23:09;;;;;;;9.48;4.25;;;;;;;;;;5008926;28;20037;-79
2023/03/14 09:25:35;;;;;;;8.55;4.43;;;;;;;;;;5002943;28;20454;-80
2023/03/14 09:28:01;;;;;;;8.77;4.70;;;;;;;;;;5023116;28;20042;-79
2023/03/14 09:30:27;;;;;;;8.10;4.07;;;;;;;;;;5019571;28;20030;-80
2023/03/14 09:32:53;;;;;;;7.68;4.28;;;;;;;;;;5011137;28;20021;-80
2023/03/14 09:35:19;;;;;;;8.18;4.43;;;;;;;;;;5022765;28;20041;-80
2023/03/14 09:37:45;;;;;;;7.40;4.47;;;;;;;;;;5006551;28;20026;-80
2023/03/14 09:40:13;;;;;;;8.23;3.80;;;;;;;;;;5005502;28;20058;-80
2023/03/14 09:42:40;;;;;;;8.80;4.00;;;;;;;;;;5004946;28;20030;-80
2023/03/14 09:45:10;;;;;;;8.10;5.53;;;;;;;;;;5008362;28;20026;-80
2023/03/14 09:47:36;;;;;;;11.20;4.72;;;;;;;;;;5021565;28;20511;-80
2023/03/14 09:50:03;;;;;;;10.88;5.20;;;;;;;;;;5023494;28;20045;-80
2023/03/14 09:52:33;;;;;;;10.27;5.28;;;;;;;;;;5024853;28;20022;-79
2023/03/14 09:55:14;;;;;;;8.05;4.10;;;;;;;;;;5015511;28;20018;-80
2023/03/14 09:57:41;;;;;;;10.43;4.60;;;;;;;;;;5006983;28;20081;-78
2023/03/14 10:00:14;;;;;;;9.90;4.03;;;;;;;;;;5022843;28;20038;-79
2023/03/14 10:02:40;;;;;;;;;;;;;;;;;;5024120;28;20034;-80
2023/03/14 10:05:08;;;;;;;9.52;4.63;;;;;;;;;;5022557;28;19905;-80
2023/03/14 10:07:34;;;;;;;8.30;4.22;;;;;;;;;;5022485;28;20042;-79
2023/03/14 10:10:00;;;;;;;9.25;5.00;;;;;;;;;;5023475;28;20028;-81
2023/03/14 10:12:33;;;;;;;9.07;4.88;;;;;;;;;;5015990;28;20085;-80
2023/03/14 10:15:03;;;;;;;10.27;4.70;;;;;;;;;;5003877;28;20034;-80
2023/03/14 10:17:30;;;;;;;11.25;5.03;;;;;;;;;;5011906;28;20018;-80
2023/03/14 10:19:57;;;;;;;15.18;6.28;;;;;;;;;;5016406;28;20723;-80
2023/03/14 10:22:33;;;;;;;8.63;5.32;;;;;;;;;;5025606;28;20022;-80
2023/03/14 10:25:09;;;;;;;8.90;5.43;;;;;;;;;;5016343;28;20030;-79
2023/03/14 10:27:36;;;;;;;10.18;5.38;;;;;;;;;;5006103;28;20046;-80
2023/03/14 10:30:06;;;;;;;11.15;5.57;;;;;;;;;;5016190;28;20045;-80
2023/03/14 10:32:42;;;;;;;10.18;4.80;;;;;;;;;;5025086;28;20018;-80
2023/03/14 10:35:14;;;;;;;9.95;4.80;;;;;;;;;;5025882;28;20014;-80
2023/03/14 10:37:57;;;;;;;13.38;7.43;;;;;;;;;;5021940;28;20045;-80
2023/03/14 10:40:29;;;;;;;35.60;16.67;;;;;;;;;;5005870;28;20061;-80
2023/03/14 10:42:56;;;;;;;27.90;13.70;;;;;;;;;;5024319;28;20410;-80
2023/03/14 10:45:39;;;;;;;25.83;11.55;;;;;;;;;;5024204;28;20028;-80
2023/03/14 10:48:22;;;;;;;26.25;10.90;;;;;;;;;;5025394;28;20486;-80
2023/03/14 10:50:49;;;;;;;19.92;8.93;;;;;;;;;;5006148;28;20105;-79
2023/03/14 10:53:17;;;;;;;8.35;4.45;;;;;;;;;;5007400;28;20006;-79
2023/03/14 10:55:45;;;;;;;10.68;4.15;;;;;;;;;;5019651;28;20045;-80
2023/03/14 10:58:27;;;;;;;5.68;2.80;;;;;;;;;;5006045;28;20054;-80
2023/03/14 11:01:08;;;;;;;3.28;1.42;;;;;;;;;;5020668;28;20030;-80
2023/03/14 11:03:36;;;;;;;3.22;0.77;;;;;;;;;;5021937;28;20049;-79
2023/03/14 11:06:28;;;;;;;2.00;0.70;;;;;;;;;;5005065;28;20030;-81
2023/03/14 11:08:54;;;;;;;6.22;2.55;;;;;;;;;;5005626;28;20046;-79
2023/03/14 11:11:25;;;;;;;4.00;1.23;;;;;;;;;;5034982;28;20105;-79
2023/03/14 11:13:52;;;;;;;3.08;1.30;;;;;;;;;;5046042;28;20042;-80
2023/03/14 11:16:21;;;;;;;3.08;0.60;;;;;;;;;;5025229;28;20026;-79
2023/03/14 11:18:52;;;;;;;1.88;0.68;;;;;;;;;;5042386;28;20026;-79
2023/03/14 11:21:24;;;;;;;2.17;0.68;;;;;;;;;;5036867;28;20033;-79
2023/03/14 11:24:08;;;;;;;1.33;0.60;;;;;;;;;;5043262;28;20041;-80
2023/03/14 11:26:49;;;;;;;2.38;0.80;;;;;;;;;;5044372;28;20034;-80
2023/03/14 11:29:26;;;;;;;1.83;0.68;;;;;;;;;;5005441;28;20025;-79
2023/03/14 11:31:56;;;;;;;6.00;1.48;;;;;;;;;;5026856;28;20032;-80
2023/03/14 11:34:29;;;;;;;6.35;2.42;;;;;;;;;;5017927;28;20133;-80
2023/03/14 11:37:05;;;;;;;1.40;0.60;;;;;;;;;;5038959;28;20033;-79
2023/03/14 11:39:40;;;;;;;5.35;2.55;;;;;;;;;;5015041;28;20052;-79
2023/03/14 11:42:12;;;;;;;6.35;4.43;;;;;;;;;;5020522;28;20089;-80
2023/03/14 11:44:39;;;;;;;3.10;1.00;;;;;;;;;;5026138;28;20053;-79
2023/03/14 11:47:16;;;;;;;1.88;0.60;;;;;;;;;;5001487;28;20038;-79
2023/03/14 11:49:58;;;;;;;7.63;3.17;;;;;;;;;;5016216;28;20052;-79
2023/03/14 11:52:39;;;;;;;4.82;1.50;;;;;;;;;;5023624;28;20025;-79
2023/03/14 11:55:15;;;;;;;3.13;1.20;;;;;;;;;;5018759;28;20535;-79
2023/03/14 11:57:41;;;;;;;4.82;2.33;;;;;;;;;;5025066;28;20065;-80
2023/03/14 12:00:17;;;;;;;3.30;1.35;;;;;;;;;;5006201;28;20039;-80
2023/03/14 12:02:43;;;;;;;5.70;1.70;;;;;;;;;;5024441;28;20113;-80
2023/03/14 12:05:28;;;;;;;2.65;0.77;;;;;;;;;;5023939;28;20525;-78
2023/03/14 12:07:59;;;;;;;4.03;1.90;;;;;;;;;;5024467;28;20022;-80
2023/03/14 12:10:25;;;;;;;7.03;0.80;;;;;;;;;;5021199;28;20034;-79
2023/03/14 12:12:52;;;;;;;4.53;1.90;;;;;;;;;;5019030;28;20030;-80
2023/03/14 12:15:22;;;;;;;3.13;0.90;;;;;;;;;;5018742;28;20080;-79
2023/03/14 12:17:54;;;;;;;3.33;1.08;;;;;;;;;;5017768;28;20086;-80
2023/03/14 12:20:21;;;;;;;1.50;0.45;;;;;;;;;;5000033;28;20545;-79
2023/03/14 12:22:48;;;;;;;2.40;0.77;;;;;;;;;;5002845;28;20046;-80
2023/03/14 12:25:14;;;;;;;5.47;1.92;;;;;;;;;;5006338;28;20030;-79
2023/03/14 12:27:43;;;;;;;7.70;3.15;;;;;;;;;;5020000;28;20030;-81
2023/03/14 12:30:20;;;;;;;2.25;0.70;;;;;;;;;;5008983;28;20391;-79
2023/03/14 12:33:06;;;;;;;3.17;0.60;;;;;;;;;;4999234;28;20375;-80
2023/03/14 12:35:41;;;;;;;0.95;0.40;;;;;;;;;;5001706;28;20398;-80
2023/03/14 12:38:10;;;;;;;5.25;0.90;;;;;;;;;;5004913;28;20044;-79
2023/03/14 12:40:40;;;;;;;5.10;0.90;;;;;;;;;;5001630;28;20030;-80
2023/03/14 12:43:25;;;;;;;3.13;0.70;;;;;;;;;;5004994;28;20034;-80
2023/03/14 12:46:14;;;;;;;3.30;0.80;;;;;;;;;;5014690;28;20036;-80
2023/03/14 12:48:40;;;;;;;1.00;0.40;;;;;;;;;;5011842;28;20443;-79
2023/03/14 12:51:13;;;;;;;1.17;0.45;;;;;;;;;;5019669;28;20026;-80
2023/03/14 12:53:38;;;;;;;;;;;;;;;;;;5006212;28;20017;-79
2023/03/14 12:56:07;;;;;;;1.88;0.60;;;;;;;;;;5023249;28;20284;-79
2023/03/14 12:58:44;;;;;;;1.70;0.50;;;;;;;;;;5008150;28;20114;-79
2023/03/14 13:01:16;;;;;;;5.13;1.05;;;;;;;;;;5023036;28;20075;-79
2023/03/14 13:03:53;;;;;;;2.83;0.85;;;;;;;;;;5011956;28;20027;-79
2023/03/14 13:06:38;;;;;;;3.05;0.90;;;;;;;;;;5011016;28;20088;-80
2023/03/14 13:09:22;;;;;;;3.58;0.95;;;;;;;;;;5001000;28;20486;-79
2023/03/14 13:11:48;;;;;;;2.30;1.00;;;;;;;;;;5006848;28;20014;-79
2023/03/14 13:14:14;;;;;;;1.08;0.40;;;;;;;;;;5005356;28;20032;-79
2023/03/14 13:16:41;;;;;;;1.20;0.45;;;;;;;;;;5016598;28;20018;-79
2023/03/14 13:19:14;;;;;;;1.75;0.60;;;;;;;;;;5021608;28;20026;-78
2023/03/14 13:21:40;;;;;;;1.83;0.55;;;;;;;;;;5020311;28;20049;-79
2023/03/14 13:24:09;;;;;;;2.03;0.50;;;;;;;;;;5020898;28;20079;-79
2023/03/14 13:26:36;;;;;;;6.60;1.00;;;;;;;;;;5015854;28;20046;-79
2023/03/14 13:29:16;;;;;;;3.05;0.68;;;;;;;;;;5001025;28;20026;-79
2023/03/14 13:31:46;;;;;;;1.48;0.60;;;;;;;;;;5014152;28;20050;-78
2023/03/14 13:34:13;;;;;;;2.20;0.70;;;;;;;;;;5008953;28;20104;-79
2023/03/14 13:36:39;;;;;;;2.58;0.80;;;;;;;;;;5005189;28;20027;-79
2023/03/14 13:39:12;;;;;;;1.40;0.50;;;;;;;;;;5020611;28;20037;-79
2023/03/14 13:41:38;;;;;;;2.80;0.65;;;;;;;;;;5022862;28;20054;-80
2023/03/14 13:44:07;;;;;;;3.08;1.00;;;;;;;;;;5019491;28;20045;-78
2023/03/14 13:46:37;;;;;;;2.75;0.95;;;;;;;;;;5017494;28;20025;-78
2023/03/14 13:49:04;;;;;;;1.58;0.70;;;;;;;;;;5002402;28;20034;-78
2023/03/14 13:51:32;;;;;;;2.40;0.57;;;;;;;;;;5018181;28;20029;-79
2023/03/14 13:53:59;;;;;;;2.45;0.80;;;;;;;;;;5025005;28;20025;-79
2023/03/14 13:56:27;;;;;;;0.85;0.30;;;;;;;;;;5021852;28;20022;-78
2023/03/14 13:58:54;;;;;;;1.10;0.43;;;;;;;;;;5015888;28;20076;-78
2023/03/14 14:01:20;;;;;;;1.98;0.50;;;;;;;;;;5009031;28;20037;-78
2023/03/14 14:03:49;;;;;;;1.80;0.40;;;;;;;;;;4996156;28;21077;-77
2023/03/14 14:06:27;;;;;;;1.40;0.40;;;;;;;;;;4996484;28;20034;-78
2023/03/14 14:08:53;;;;;;;0.95;0.30;;;;;;;;;;4999225;28;20029;-78
2023/03/14 14:11:22;;;;;;;6.78;1.13;;;;;;;;;;4997877;28;20506;-78
2023/03/14 14:13:49;;;;;;;3.33;0.73;;;;;;;;;;4998303;28;20027;-77
2023/03/14 14:16:17;;;;;;;0.77;0.40;;;;;;;;;;5001856;28;20033;-79
2023/03/14 14:18:43;;;;;;;1.75;0.60;;;;;;;;;;5002375;28;20037;-79
2023/03/14 14:21:10;;;;;;;2.40;0.50;;;;;;;;;;5001515;28;20113;-79
2023/03/14 14:23:38;;;;;;;1.98;0.50;;;;;;;;;;5003688;28;20076;-79
2023/03/14 14:26:05;;;;;;;2.30;0.52;;;;;;;;;;5009784;28;20391;-80
2023/03/14 14:28:33;;;;;;;2.08;0.60;;;;;;;;;;5008927;28;20520;-79
2023/03/14 14:31:01;;;;;;;3.17;0.70;;;;;;;;;;5008159;28;20029;-80
2023/03/14 14:33:27;;;;;;;2.83;1.00;;;;;;;;;;5023995;28;20048;-80
2023/03/14 14:35:58;;;;;;;2.30;0.77;;;;;;;;;;5027775;28;20034;-79
2023/03/14 14:38:24;;;;;;;2.17;0.90;;;;;;;;;;5039960;28;20033;-78
2023/03/14 14:40:52;;;;;;;3.72;1.20;;;;;;;;;;5008169;28;20026;-79
2023/03/14 14:43:21;;;;;;;2.65;0.80;;;;;;;;;;5013305;28;20010;-81